ENVR

Værøy Heliport

Værøy, Norway
METAR ENVR 131050Z 20022KT 9999 FEW010 SCT026 BKN095 06/04 Q1027
Observed Flight Rules
Dec-13 @ 10:50 UTC (30 minutes ago) Visual Flight Rules
Wind Visibility Clouds
200° at 22 knots 10,000+ meters
  • Few at 1,000' AGL
  • Scattered at 2,600' AGL
  • Broken at 9,500' AGL
Temperatures Readings
Current 6°C / 43°F
Dewpoint 4°C / 39°F
Humidity 87%
Altimeter 30.32" Hg
Pressure 1027 hPa
Elevation 4
METAR ENVR 131050Z 20022KT 9999 FEW010 SCT026 BKN095 06/04 Q1027
Observed Flight Rules
Dec-13 @ 10:50 UTC
(30 minutes ago)
VFR
Wind Visibility
200° at 22 knots 10,000+ meters
Clouds
  • Few at 1,000' AGL
  • Scattered at 2,600' AGL
  • Broken at 9,500' AGL
Temperature Dewpoint
6°C / 43°F 4°C / 39°F
Humidity Altimeter Pressure
87% 30.32" Hg 1027 hPa